Horncastle, United Kingdom
Current Conditions -  °F | °C
As of 2:50 PM on Tuesday 21 Oct 2014 (Local Time) from EGXC Reporting Station
Few Clouds Few Clouds  
Wind Chill: 50°   Ceiling: Unl
Heat Index: 50°   Visibility: 6mi
Dew Point: 37°   Wind: 25mph
Humidity: 62%   Direction: 290°WNW
Pressure: 29.62"   Gusts: 38mph
Location:  53.21°N, 0.12°W
Report Text: EGXC 211350Z 29022G33KT 9999 FEW022CB 10/03 Q1003 BLU NOSIG
Loading
Personal Weather Stations






























Interactive Weather Map
Tropical Storm Tracking
New forecast layout! Learn more

10-Day Weather Forecast

Advertisements
Track Severe Weather on mobile